Latest Coastal Weather Observations for Dunalley

IDT60701

Issued at 3:52 pm EDT Monday 27 March 2017 (issued every 10 minutes, with the page automatically refreshed every 10 minutes)

About coastal observations | Map of coastal stations | Coastal observations for TAS | Marine services | Other Formats
Station Details ID: 094254 Name: DUNALLEY (STROUD POINT) Lat: -42.90 Lon: 147.79 Height: 12.43 m
Data from the previous 72 hours. | See also: Recent months at Dunalley
Date/Time
EDT
Temp
°C
Wind Pressure Rain since
9am
mm
Weather Cloud Vis
km
Sea
Height
m
Swell
Dir  Spd
kts
Gust
kts
hPa Trend Height
m
Period
s
Dir
27/03:31pm 19.2 NW 20 31 997.4 - 0.8 - - - - - - -
27/03:30pm 19.2 NW 21 30 997.5 - 0.8 - - - - - - -
27/03:24pm 19.4 WNW 24 41 997.4 - 0.8 - - - - - - -
27/03:05pm 22.0 NNW 21 47 996.4 - 0.4 - - - - - - -
27/03:04pm 24.5 NNW 19 46 995.9 - 0.2 - - - - - - -
27/03:00pm 27.9 NNW 16 29 994.5 - 0.0 - - - - - - -
27/02:30pm 28.9 NNW 22 34 994.5 - 0.0 - - - - - - -
27/02:00pm 27.9 NNE 17 33 995.0 - 0.0 - - - - - - -
27/01:51pm 27.4 NE 15 25 995.2 - 0.0 - - - - - - -
27/01:30pm 22.3 NE 19 26 995.9 - 0.0 - - - - - - -
27/01:00pm 22.8 NE 18 23 996.6 - 0.0 - - - - - - -
27/12:30pm 24.0 NNE 14 22 997.8 - 0.0 - - - - - - -
27/12:00pm 20.3 NE 13 17 999.0 - 0.0 - - - - - - -
27/11:30am 19.9 NE 16 20 999.2 - 0.0 - - - - - - -
27/11:00am 19.9 NE 14 19 1000.1 - 0.0 - - - - - - -
27/10:30am 20.6 NE 15 19 1000.6 - 0.0 - - - - - - -
27/10:00am 21.8 ENE 12 17 1001.8 - 0.0 - - - - - - -
27/09:30am 20.4 NE 10 15 1002.6 - 0.0 - - - - - - -
27/09:00am 19.1 NE 11 14 1003.5 - 0.0 - - - - - - -
27/08:30am 18.6 NE 10 16 1003.7 - 0.0 - - - - - - -
27/08:00am 17.7 NE 14 17 1004.0 - 0.0 - - - - - - -
27/07:30am 17.3 NE 12 15 1004.4 - 0.0 - - - - - - -
27/07:00am 17.2 NE 11 13 1005.0 - 0.0 - - - - - - -
27/06:30am 17.1 NE 10 12 1005.7 - 0.0 - - - - - - -
27/06:00am 16.9 NNE 12 14 1006.2 - 0.0 - - - - - - -
27/05:30am 16.5 NNE 10 12 1006.5 - 0.0 - - - - - - -
27/05:00am 16.3 NE 12 15 1006.6 - 0.0 - - - - - - -
27/04:30am 16.2 NE 11 14 1007.1 - 0.0 - - - - - - -
27/04:00am 16.2 NE 8 12 1007.7 - 0.0 - - - - - - -
27/03:30am 15.9 ENE 6 9 1008.2 - 0.0 - - - - - - -
27/03:00am 16.1 ENE 5 7 1008.9 - 0.0 - - - - - - -
27/02:30am 16.2 ENE 5 8 1009.7 - 0.0 - - - - - - -
27/02:00am 16.3 NE 6 10 1009.8 - 0.0 - - - - - - -
27/01:30am 16.5 NE 10 13 1010.3 - 0.0 - - - - - - -
27/01:00am 16.9 NNE 7 10 1010.8 - 0.0 - - - - - - -
27/12:30am 16.9 NE 11 15 1011.2 - 0.0 - - - - - - -
27/12:00am 17.0 NE 10 13 1011.9 - 0.0 - - - - - - -
 
Date/Time
EDT
Temp
°C
Wind Pressure Rain since
9am
mm
Weather Cloud Vis
km
Sea
Height
m
Swell
Dir  Spd
kts
Gust
kts
hPa Trend Height
m
Period
s
Dir
26/11:30pm 17.1 ENE 10 14 1012.6 - 0.0 - - - - - - -
26/11:00pm 17.0 NNE 3 7 1013.2 - 0.0 - - - - - - -
26/10:30pm 17.0 NE 16 21 1012.8 - 0.0 - - - - - - -
26/10:00pm 16.9 ENE 19 23 1012.9 - 0.0 - - - - - - -
26/09:30pm 16.9 NE 17 21 1013.4 - 0.0 - - - - - - -
26/09:00pm 16.9 NE 18 22 1013.3 - 0.0 - - - - - - -
26/08:30pm 16.9 NE 19 23 1013.1 - 0.0 - - - - - - -
26/08:00pm 17.0 NE 19 23 1013.3 - 0.0 - - - - - - -
26/07:30pm 17.1 NE 17 21 1013.4 - 0.0 - - - - - - -
26/07:00pm 17.3 NE 16 19 1013.4 - 0.0 - - - - - - -
26/06:30pm 17.8 NE 13 16 1013.5 - 0.0 - - - - - - -
26/06:00pm 18.5 NE 15 18 1013.4 - 0.0 - - - - - - -
26/05:30pm 19.1 NE 13 16 1013.7 - 0.0 - - - - - - -
26/05:00pm 20.1 NE 13 16 1013.7 - 0.0 - - - - - - -
26/04:30pm 20.3 NE 16 18 1013.6 - 0.0 - - - - - - -
26/04:00pm 20.8 NE 13 16 1013.9 - 0.0 - - - - - - -
26/03:30pm 20.9 NE 15 17 1014.1 - 0.0 - - - - - - -
26/03:00pm 21.6 NE 12 16 1014.3 - 0.0 - - - - - - -
26/02:30pm 22.2 NE 13 15 1014.4 - 0.0 - - - - - - -
26/02:00pm 22.1 NE 13 15 1014.5 - 0.0 - - - - - - -
26/01:30pm 21.9 NE 11 13 1015.0 - 0.0 - - - - - - -
26/01:00pm 21.1 NE 3 8 1015.5 - 0.0 - - - - - - -
26/12:30pm 19.7 NE 3 4 1015.4 - 0.0 - - - - - - -
26/12:00pm 19.0 NE 3 4 1015.8 - 0.0 - - - - - - -
26/11:30am 18.4 NE 3 3 1016.0 - 0.0 - - - - - - -
26/11:00am 17.8 NE 3 5 1016.0 - 0.0 - - - - - - -
26/10:30am 17.8 NE 4 4 1016.1 - 0.0 - - - - - - -
26/10:00am 16.5 NE 4 5 1016.0 - 0.0 - - - - - - -
26/09:30am 16.2 NE 4 5 1015.8 - 0.0 - - - - - - -
26/09:00am 15.5 NE 4 5 1015.5 - 0.0 - - - - - - -
26/08:30am 14.9 NE 3 3 1015.1 - 0.0 - - - - - - -
26/08:00am 14.0 NE 2 3 1014.7 - 0.0 - - - - - - -
26/07:30am 13.4 NE 4 4 1014.4 - 0.0 - - - - - - -
26/07:00am 13.3 NE 4 5 1014.0 - 0.0 - - - - - - -
26/06:30am 13.6 NE 3 4 1013.7 - 0.0 - - - - - - -
26/06:00am 14.2 NE 2 2 1013.8 - 0.0 - - - - - - -
26/05:30am 14.0 NE 1 2 1013.7 - 0.0 - - - - - - -
26/05:00am 13.9 NE 3 4 1013.7 - 0.0 - - - - - - -
26/04:30am 13.9 NE 3 4 1013.7 - 0.0 - - - - - - -
26/04:00am 14.4 NE 1 2 1013.7 - 0.0 - - - - - - -
26/03:30am 14.2 CALM 0 0 1013.7 - 0.0 - - - - - - -
26/03:00am 14.0 CALM 0 0 1013.8 - 0.0 - - - - - - -
26/02:30am 14.3 CALM 0 0 1013.7 - 0.0 - - - - - - -
26/02:00am 14.8 CALM 0 0 1013.8 - 0.0 - - - - - - -
26/01:30am 14.7 CALM 0 0 1013.7 - 0.0 - - - - - - -
26/01:00am 14.6 NE 1 2 1013.7 - 0.0 - - - - - - -
26/12:30am 15.2 NE 3 3 1013.7 - 0.0 - - - - - - -
26/12:00am 15.2 NE 3 3 1013.7 - 0.0 - - - - - - -
 
Date/Time
EDT
Temp
°C
Wind Pressure Rain since
9am
mm
Weather Cloud Vis
km
Sea
Height
m
Swell
Dir  Spd
kts
Gust
kts
hPa Trend Height
m
Period
s
Dir
25/11:30pm 15.6 NE 4 5 1013.6 - 0.0 - - - - - - -
25/11:00pm 15.4 NE 4 5 1013.7 - 0.0 - - - - - - -
25/10:30pm 15.9 NE 3 3 1013.6 - 0.0 - - - - - - -
25/10:00pm 15.8 NE 3 4 1013.4 - 0.0 - - - - - - -
25/09:30pm 16.9 NE 5 7 1013.2 - 0.0 - - - - - - -
25/09:00pm 17.4 NE 7 8 1012.9 - 0.0 - - - - - - -
25/08:30pm 17.5 NE 8 10 1012.7 - 0.0 - - - - - - -
25/08:00pm 17.7 NE 8 9 1012.5 - 0.0 - - - - - - -
25/07:30pm 17.6 ENE 8 9 1012.4 - 0.0 - - - - - - -
25/07:00pm 18.0 ENE 8 9 1012.2 - 0.0 - - - - - - -
25/06:30pm 18.1 NE 9 11 1012.0 - 0.0 - - - - - - -
25/06:00pm 18.3 NE 12 14 1011.8 - 0.0 - - - - - - -
25/05:30pm 19.1 NE 10 12 1011.9 - 0.0 - - - - - - -
25/05:00pm 19.2 NE 12 14 1011.8 - 0.0 - - - - - - -
25/04:30pm 19.2 NE 12 14 1012.0 - 0.0 - - - - - - -
25/04:00pm 19.1 NE 10 12 1012.3 - 0.0 - - - - - - -
25/03:30pm 19.1 NE 14 16 1012.2 - 0.0 - - - - - - -
25/03:00pm 20.0 ENE 12 15 1012.5 - 0.0 - - - - - - -
25/02:30pm 20.1 NE 10 12 1012.8 - 0.0 - - - - - - -
25/02:00pm 19.0 NE 12 13 1013.1 - 0.0 - - - - - - -
25/01:30pm 18.3 NE 13 16 1013.4 - 0.0 - - - - - - -
25/01:00pm 18.2 ENE 11 13 1013.9 - 0.0 - - - - - - -
25/12:30pm 18.1 NE 10 12 1014.3 - 0.0 - - - - - - -
25/12:00pm 18.5 ENE 7 10 1014.8 - 0.0 - - - - - - -
25/11:30am 18.4 NE 7 10 1015.1 - 0.0 - - - - - - -
25/11:00am 17.5 NNE 6 9 1015.3 - 0.0 - - - - - - -
25/10:30am 17.0 N 8 11 1015.3 - 0.0 - - - - - - -
25/10:00am 16.8 NNE 9 11 1015.2 - 0.0 - - - - - - -
25/09:30am 15.8 NNE 10 13 1015.2 - 0.0 - - - - - - -
25/09:00am 14.9 N 10 14 1015.1 - 0.0 - - - - - - -
25/08:30am 15.3 NNE 9 11 1015.1 - 0.0 - - - - - - -
25/08:00am 15.4 N 6 8 1015.5 - 0.0 - - - - - - -
25/07:30am 14.9 N 6 9 1015.5 - 0.0 - - - - - - -
25/07:00am 14.7 N 5 7 1015.7 - 0.0 - - - - - - -
25/06:30am 15.1 NNE 8 11 1015.6 - 0.0 - - - - - - -
25/06:00am 13.6 N 3 4 1015.8 - 0.0 - - - - - - -
25/05:30am 13.6 N 3 5 1016.1 - 0.0 - - - - - - -
25/05:00am 13.9 N 4 5 1016.4 - 0.0 - - - - - - -
25/04:30am 14.9 NNE 5 8 1016.6 - 0.0 - - - - - - -
25/04:00am 14.7 NNE 5 9 1016.9 - 0.0 - - - - - - -
25/03:30am 14.6 NE 6 8 1017.3 - 0.0 - - - - - - -
25/03:00am 14.9 NNE 8 11 1017.8 - 0.0 - - - - - - -
25/02:30am 14.9 N 10 15 1018.3 - 0.0 - - - - - - -
25/02:00am 14.5 NNE 9 12 1018.5 - 0.0 - - - - - - -
25/01:30am 14.5 NNE 12 17 1018.6 - 0.0 - - - - - - -
25/01:00am 14.4 NE 15 19 1018.7 - 0.0 - - - - - - -
25/12:30am 14.5 NE 15 20 1019.1 - 0.0 - - - - - - -
25/12:00am 14.4 NE 14 18 1019.6 - 0.0 - - - - - - -
 
Date/Time
EDT
Temp
°C
Wind Pressure Rain since
9am
mm
Weather Cloud Vis
km
Sea
Height
m
Swell
Dir  Spd
kts
Gust
kts
hPa Trend Height
m
Period
s
Dir
24/11:30pm 14.5 NE 14 19 1019.7 - 0.0 - - - - - - -
24/11:00pm 14.3 NE 15 17 1019.8 - 0.0 - - - - - - -
24/10:30pm 14.4 NE 17 21 1019.8 - 0.0 - - - - - - -
24/10:00pm 14.7 NE 19 25 1019.9 - 0.0 - - - - - - -
24/09:30pm 14.7 NE 16 20 1020.5 - 0.0 - - - - - - -
24/09:00pm 14.5 NE 13 18 1020.8 - 0.0 - - - - - - -
24/08:30pm 14.8 NE 16 19 1020.3 - 0.0 - - - - - - -
24/08:00pm 14.9 NE 18 22 1020.6 - 0.0 - - - - - - -
24/07:30pm 14.8 NE 17 22 1020.9 - 0.0 - - - - - - -
24/07:00pm 14.9 ENE 17 20 1021.1 - 0.0 - - - - - - -
24/06:30pm 14.9 ENE 17 21 1020.9 - 0.0 - - - - - - -
24/06:00pm 15.2 NE 18 22 1021.0 - 0.0 - - - - - - -
24/05:30pm 15.1 NE 17 20 1021.0 - 0.0 - - - - - - -
24/05:00pm 15.3 ENE 16 21 1021.1 - 0.0 - - - - - - -
24/04:30pm 15.7 ENE 15 19 1021.6 - 0.0 - - - - - - -
24/04:00pm 16.2 ENE 15 18 1021.6 - 0.0 - - - - - - -

Other Formats:

Comma delimited format used in spreadsheet applications
http://www.bom.gov.au/fwo/IDT60701/IDT60701.94951.axf

JavaScript Object Notation format (JSON) in row-major order
http://www.bom.gov.au/fwo/IDT60701/IDT60701.94951.json